Time;durP1;ratioP1;P1;durP2;ratioP2;P2;SDS_P1;SDS_P2;PMS_P1;PMS_P2;Temp;Humidity;BMP_temperature;BMP_pressure;BME280_temperature;BME280_humidity;BME280_pressure;Samples;Min_cycle;Max_cycle;Signal;HPM_P1;HPM_P2
2022/09/02 00:01:51;;;;;;;;;;;;;;;16.64;45.53;100568.69;4878490;29;1159;-62
2022/09/02 00:04:18;;;;;;;;;;;;;;;16.61;45.42;100569.25;4881406;29;997;-62
2022/09/02 00:06:43;;;;;;;;;;;;;;;16.67;45.45;100568.13;4881051;29;1164;-62
2022/09/02 00:09:10;;;;;;;;;;;;;;;16.67;45.20;100576.38;4870477;29;985;-62
2022/09/02 00:11:35;;;;;;;;;;;;;;;16.62;45.19;100570.06;4875907;29;1017;-62
2022/09/02 00:14:02;;;;;;;;;;;;;;;16.65;45.17;100575.84;4870897;29;1076;-62
2022/09/02 00:16:28;;;;;;;;;;;;;;;16.56;45.54;100574.75;4877563;29;1982;-62
2022/09/02 00:18:55;;;;;;;;;;;;;;;16.58;45.21;100567.09;4875127;29;1527;-63
2022/09/02 00:21:20;;;;;;;;;;;;;;;16.61;45.40;100569.25;4878694;29;1068;-63
2022/09/02 00:23:46;;;;;;;;;;;;;;;16.60;45.40;100562.94;4874135;29;1005;-63
2022/09/02 00:26:12;;;;;;;;;;;;;;;16.56;45.58;100577.50;4879652;29;1040;-62
2022/09/02 00:28:37;;;;;;;;;;;;;;;16.54;45.39;100574.22;4878760;29;1048;-62
2022/09/02 00:31:03;;;;;;;;;;;;;;;16.51;45.46;100569.25;4876987;29;997;-62
2022/09/02 00:33:30;;;;;;;;;;;;;;;16.51;45.28;100564.63;4877696;29;964;-63
2022/09/02 00:35:59;;;;;;;;;;;;;;;16.49;45.20;100572.28;4872014;29;1984;-63
2022/09/02 00:38:25;;;;;;;;;;;;;;;17.39;46.03;100570.59;4879336;29;1617;-63
2022/09/02 00:40:50;;;;;;;;;;;;;;;16.84;47.12;100575.22;4881200;29;1009;-63
2022/09/02 00:43:45;;;;;;;;;;;;;;;16.77;46.63;100570.03;4879115;29;1230;-63
2022/09/02 00:46:12;;;;;;;;;;;;;;;16.76;46.00;100566.47;4855131;29;1266;-62
2022/09/02 00:48:40;;;;;;;;;;;;;;;16.71;45.63;100565.66;4875972;29;1140;-64
2022/09/02 00:51:06;;;;;;;;;;;;;;;16.67;45.68;100562.63;4876601;29;1124;-63
2022/09/02 00:53:31;;;;;;;;;;;;;;;16.67;45.63;100561.84;4877701;29;1272;-63
2022/09/02 00:55:56;;;;;;;;;;;;;;;16.60;45.47;100562.13;4878001;29;1974;-62
2022/09/02 00:58:24;;;;;;;;;;;;;;;16.63;45.43;100569.78;4875802;29;1226;-62
2022/09/02 01:00:51;;;;;;;;;;;;;;;16.58;45.25;100569.81;4875302;29;970;-62
2022/09/02 01:03:18;;;;;;;;;;;;;;;16.57;45.27;100566.25;4879475;29;1061;-62
2022/09/02 01:05:46;;;;;;;;;;;;;;;16.57;45.31;100568.16;4882050;29;1000;-62
2022/09/02 01:08:12;;;;;;;;;;;;;;;16.57;45.14;100568.97;4874912;29;1556;-62
2022/09/02 01:10:38;;;;;;;;;;;;;;;16.54;45.25;100574.22;4855334;29;1041;-63
2022/09/02 01:13:08;;;;;;;;;;;;;;;17.26;46.50;100573.97;4866388;29;914;-63
2022/09/02 01:15:36;;;;;;;;;;;;;;;16.94;46.42;100566.97;4871041;29;1989;-63
2022/09/02 01:18:02;;;;;;;;;;;;;;;16.79;46.24;100567.84;4878228;29;1013;-62
2022/09/02 01:20:27;;;;;;;;;;;;;;;16.72;46.06;100568.13;4877456;29;1048;-62
2022/09/02 01:22:53;;;;;;;;;;;;;;;16.66;45.85;100566.50;4878165;29;999;-62
2022/09/02 01:25:22;;;;;;;;;;;;;;;16.67;45.92;100568.13;4868597;29;1323;-62
2022/09/02 01:27:48;;;;;;;;;;;;;;;16.61;45.88;100569.25;4876142;29;981;-62
2022/09/02 01:30:15;;;;;;;;;;;;;;;16.60;45.50;100557.44;4872981;29;969;-62
2022/09/02 01:32:40;;;;;;;;;;;;;;;16.59;45.51;100561.31;4873984;29;1124;-63
2022/09/02 01:35:06;;;;;;;;;;;;;;;16.61;45.51;100563.78;4877953;29;1981;-62
2022/09/02 01:37:31;;;;;;;;;;;;;;;16.54;45.42;100569.53;4875737;29;1084;-62
2022/09/02 01:39:57;;;;;;;;;;;;;;;16.65;45.29;100555.78;4879381;29;1184;-62
2022/09/02 01:42:23;;;;;;;;;;;;;;;17.26;45.85;100554.72;4875338;29;941;-62
2022/09/02 01:44:48;;;;;;;;;;;;;;;17.23;47.08;100560.78;4877080;29;965;-62
2022/09/02 01:47:15;;;;;;;;;;;;;;;16.88;47.53;100548.84;4875409;29;1115;-61
2022/09/02 01:49:41;;;;;;;;;;;;;;;16.94;46.73;100550.50;4869362;29;1174;-63
2022/09/02 01:52:06;;;;;;;;;;;;;;;16.74;46.51;100540.38;4880153;29;1424;-62
2022/09/02 01:54:32;;;;;;;;;;;;;;;16.79;46.35;100547.78;4877572;29;1921;-62
2022/09/02 01:56:58;;;;;;;;;;;;;;;16.85;45.95;100538.44;4879669;29;1911;-62
2022/09/02 01:59:23;;;;;;;;;;;;;;;16.67;46.02;100529.69;4875290;29;1149;-62
2022/09/02 02:01:48;;;;;;;;;;;;;;;16.74;45.59;100535.69;4879168;29;1195;-62
2022/09/02 02:04:16;;;;;;;;;;;;;;;16.67;45.68;100537.94;4867204;29;1596;-62
2022/09/02 02:06:43;;;;;;;;;;;;;;;16.63;46.04;100525.06;4876156;29;1162;-63
2022/09/02 02:09:09;;;;;;;;;;;;;;;16.66;45.74;100527.22;4877561;29;1203;-63
2022/09/02 02:11:35;;;;;;;;;;;;;;;16.70;45.42;100534.63;4881029;29;1110;-63
2022/09/02 02:14:01;;;;;;;;;;;;;;;16.57;45.74;100524.25;4871543;29;1253;-63
2022/09/02 02:16:27;;;;;;;;;;;;;;;16.70;45.51;100526.38;4883161;29;1911;-63
2022/09/02 02:18:52;;;;;;;;;;;;;;;16.63;45.61;100534.09;4883393;29;1609;-64
2022/09/02 02:21:18;;;;;;;;;;;;;;;16.69;45.51;100537.66;4883277;29;1389;-61
2022/09/02 02:23:44;;;;;;;;;;;;;;;16.56;45.67;100523.44;4870478;29;1002;-64
2022/09/02 02:26:09;;;;;;;;;;;;;;;16.56;45.54;100522.59;4869364;29;1215;-63
2022/09/02 02:28:35;;;;;;;;;;;;;;;17.24;46.34;100537.72;4875093;29;1134;-62
2022/09/02 02:31:03;;;;;;;;;;;;;;;17.07;46.82;100538.09;4865418;29;1154;-61
2022/09/02 02:33:29;;;;;;;;;;;;;;;16.92;46.85;100528.00;4875679;29;1128;-62
2022/09/02 02:35:55;;;;;;;;;;;;;;;16.80;46.89;100531.00;4870571;29;1969;-62
2022/09/02 02:38:21;;;;;;;;;;;;;;;16.80;46.22;100528.25;4881386;29;1272;-62
2022/09/02 02:40:47;;;;;;;;;;;;;;;16.68;46.44;100525.84;4876657;29;946;-63
2022/09/02 02:43:12;;;;;;;;;;;;;;;16.69;46.23;100535.75;4867280;29;1005;-63
2022/09/02 02:45:38;;;;;;;;;;;;;;;16.68;46.07;100536.84;4876873;29;1064;-64
2022/09/02 02:48:03;;;;;;;;;;;;;;;16.66;45.75;100532.72;4875259;29;1646;-64
2022/09/02 02:50:30;;;;;;;;;;;;;;;16.62;45.84;100529.75;4876890;29;1248;-65
2022/09/02 02:52:56;;;;;;;;;;;;;;;16.66;45.79;100522.59;4865084;29;1202;-59
2022/09/02 02:55:23;;;;;;;;;;;;;;;16.63;45.75;100528.63;4876962;29;1906;-58
2022/09/02 02:57:49;;;;;;;;;;;;;;;16.73;45.75;100527.75;4880871;29;1133;-56
2022/09/02 03:00:22;;;;;;;;;;;;;;;16.58;45.67;100542.38;4881981;29;1159;-55
2022/09/02 03:02:48;;;;;;;;;;;;;;;16.58;45.85;100525.91;4875612;29;1163;-59
2022/09/02 03:05:17;;;;;;;;;;;;;;;16.70;45.44;100534.63;4864292;29;1165;-58
2022/09/02 03:07:45;;;;;;;;;;;;;;;17.44;47.00;100542.25;4874582;29;2056;-58
2022/09/02 03:10:11;;;;;;;;;;;;;;;16.94;47.46;100539.50;4880993;29;1127;-58
2022/09/02 03:12:38;;;;;;;;;;;;;;;16.90;47.01;100539.25;4880666;29;1218;-58
2022/09/02 03:15:05;;;;;;;;;;;;;;;16.79;47.17;100542.28;4871876;29;1974;-57
2022/09/02 03:17:31;;;;;;;;;;;;;;;16.67;46.67;100529.69;4880456;29;1266;-56
2022/09/02 03:19:57;;;;;;;;;;;;;;;16.75;46.25;100540.09;4880572;29;1627;-56
2022/09/02 03:22:24;;;;;;;;;;;;;;;16.83;46.17;100532.38;4880828;29;1237;-57
2022/09/02 03:24:49;;;;;;;;;;;;;;;16.75;46.07;100529.13;4873383;29;1978;-59
2022/09/02 03:27:15;;;;;;;;;;;;;;;16.74;45.98;100543.94;4875832;29;1028;-57
2022/09/02 03:29:40;;;;;;;;;;;;;;;16.75;45.88;100537.34;4871030;29;1182;-58
2022/09/02 03:32:06;;;;;;;;;;;;;;;16.57;46.25;100549.78;4874907;29;1001;-58
2022/09/02 03:34:32;;;;;;;;;;;;;;;16.71;45.93;100536.28;4878557;29;1172;-58
2022/09/02 03:36:57;;;;;;;;;;;;;;;16.70;45.91;100544.78;4876732;29;1903;-57
2022/09/02 03:39:23;;;;;;;;;;;;;;;16.57;46.12;100540.72;4877651;29;964;-60
2022/09/02 03:41:49;;;;;;;;;;;;;;;16.67;45.78;100540.69;4871935;29;1478;-59
2022/09/02 03:44:15;;;;;;;;;;;;;;;16.56;46.08;100544.56;4877787;29;1193;-58
2022/09/02 03:46:42;;;;;;;;;;;;;;;16.58;45.99;100542.38;4874553;29;1326;-60
2022/09/02 03:49:07;;;;;;;;;;;;;;;16.60;45.82;100545.66;4872761;29;1232;-60
2022/09/02 03:51:33;;;;;;;;;;;;;;;16.55;46.02;100548.41;4875287;29;1092;-59
2022/09/02 03:53:58;;;;;;;;;;;;;;;16.64;45.69;100546.72;4881162;29;1076;-57
2022/09/02 03:56:25;;;;;;;;;;;;;;;16.65;45.70;100548.38;4868907;29;1914;-57
2022/09/02 03:58:51;;;;;;;;;;;;;;;16.65;46.31;100544.78;4880688;29;1188;-56
2022/09/02 04:01:20;;;;;;;;;;;;;;;17.28;47.42;100558.03;4874999;29;1181;-57
2022/09/02 04:03:45;;;;;;;;;;;;;;;16.85;47.83;100552.16;4870367;29;1330;-56
2022/09/02 04:06:11;;;;;;;;;;;;;;;16.80;47.66;100565.91;4874567;29;1166;-57
2022/09/02 04:08:39;;;;;;;;;;;;;;;16.82;47.10;100553.53;4871849;29;1189;-56
2022/09/02 04:11:08;;;;;;;;;;;;;;;16.77;46.81;100556.28;4877459;29;985;-56
2022/09/02 04:13:34;;;;;;;;;;;;;;;16.74;46.37;100551.38;4872528;29;1004;-54
2022/09/02 04:16:04;;;;;;;;;;;;;;;16.72;46.48;100553.59;4878056;29;1906;-55
2022/09/02 04:18:30;;;;;;;;;;;;;;;16.69;46.32;100560.44;4872534;29;1150;-56
2022/09/02 04:20:58;;;;;;;;;;;;;;;16.64;46.58;100560.47;4878039;29;1307;-56
2022/09/02 04:23:26;;;;;;;;;;;;;;;16.72;46.16;100565.38;4878233;29;1098;-56
2022/09/02 04:25:52;;;;;;;;;;;;;;;16.67;46.02;100562.63;4880394;29;831;-55
2022/09/02 04:28:18;;;;;;;;;;;;;;;16.64;46.00;100563.22;4879609;29;1222;-55
2022/09/02 04:30:46;;;;;;;;;;;;;;;16.62;46.04;100570.91;4872039;29;1472;-55
2022/09/02 04:33:13;;;;;;;;;;;;;;;17.62;46.81;100562.75;4869709;29;1261;-54
2022/09/02 04:35:39;;;;;;;;;;;;;;;17.07;47.97;100568.31;4877627;29;1907;-54
2022/09/02 04:38:05;;;;;;;;;;;;;;;16.97;47.51;100560.94;4877781;29;859;-55
2022/09/02 04:40:33;;;;;;;;;;;;;;;16.83;47.30;100570.81;4878891;29;1132;-53
2022/09/02 04:42:59;;;;;;;;;;;;;;;16.87;46.91;100567.25;4876306;29;1025;-56
2022/09/02 04:45:25;;;;;;;;;;;;;;;16.80;46.71;100568.66;4870507;29;2325;-56
2022/09/02 04:47:51;;;;;;;;;;;;;;;16.73;46.56;100563.44;4868512;29;2151;-57
2022/09/02 04:50:17;;;;;;;;;;;;;;;16.86;46.13;100564.78;4878420;29;2163;-57
2022/09/02 04:52:56;;;;;;;;;;;;;;;16.76;46.35;100562.91;4881828;29;2029;-57
2022/09/02 04:55:22;;;;;;;;;;;;;;;16.84;46.04;100562.31;4875110;29;1953;-56
2022/09/02 04:57:48;;;;;;;;;;;;;;;16.74;46.02;100567.84;4871177;29;2101;-57
2022/09/02 05:00:14;;;;;;;;;;;;;;;16.74;46.17;100568.66;4868845;29;1976;-57
2022/09/02 05:02:40;;;;;;;;;;;;;;;16.64;46.30;100560.47;4866451;29;1124;-56
2022/09/02 05:05:06;;;;;;;;;;;;;;;16.67;45.86;100568.13;4875633;29;1308;-57
2022/09/02 05:07:36;;;;;;;;;;;;;;;16.71;45.99;100563.72;4873828;29;1211;-58
2022/09/02 05:10:02;;;;;;;;;;;;;;;16.72;46.03;100568.13;4879482;29;1278;-56
2022/09/02 05:12:30;;;;;;;;;;;;;;;16.59;46.27;100565.97;4876824;29;1142;-57
2022/09/02 05:14:59;;;;;;;;;;;;;;;16.65;46.05;100575.84;4876644;29;1403;-57
2022/09/02 05:17:28;;;;;;;;;;;;;;;16.74;45.64;100573.34;4879655;29;1910;-57
2022/09/02 05:19:55;;;;;;;;;;;;;;;16.64;46.17;100578.88;4880842;29;1266;-56
2022/09/02 05:22:20;;;;;;;;;;;;;;;16.62;45.85;100572.81;4880946;29;1227;-57
2022/09/02 05:24:47;;;;;;;;;;;;;;;16.54;46.26;100574.22;4880265;29;1454;-57
2022/09/02 05:27:15;;;;;;;;;;;;;;;16.63;45.97;100574.47;4876743;29;1227;-58
2022/09/02 05:29:40;;;;;;;;;;;;;;;16.62;45.97;100579.16;4881431;29;2328;-58
2022/09/02 05:32:07;;;;;;;;;;;;;;;16.64;46.10;100567.88;4879163;29;1207;-58
2022/09/02 05:34:34;;;;;;;;;;;;;;;16.58;46.11;100569.81;4877346;29;1314;-57
2022/09/02 05:37:02;;;;;;;;;;;;;;;16.60;46.06;100581.34;4878573;29;1903;-57
2022/09/02 05:39:29;;;;;;;;;;;;;;;17.14;46.58;100578.97;4883459;29;1258;-57
2022/09/02 05:41:55;;;;;;;;;;;;;;;17.02;47.96;100569.13;4877260;29;1317;-57
2022/09/02 05:44:21;;;;;;;;;;;;;;;18.15;46.34;100575.84;4877187;29;1254;-56
2022/09/02 05:46:47;;;;;;;;;;;;;;;17.57;47.85;100569.13;4882820;29;1246;-59
2022/09/02 05:49:16;;;;;;;;;;;;;;;17.38;48.70;100574.44;4880941;29;1283;-59
2022/09/02 05:51:54;;;;;;;;;;;;;;;17.25;49.50;100575.91;4879534;29;1323;-57
2022/09/02 05:54:33;;;;;;;;;;;;;;;17.19;49.92;100579.75;4883504;29;1259;-57
2022/09/02 05:57:03;;;;;;;;;;;;;;;17.15;50.29;100580.63;4877947;29;2029;-57
2022/09/02 05:59:29;;;;;;;;;;;;;;;17.06;50.88;100574.91;4876864;29;2348;-57
2022/09/02 06:01:57;;;;;;;;;;;;;;;16.99;51.26;100582.63;4878108;29;1194;-57
2022/09/02 06:04:22;;;;;;;;;;;;;;;16.96;51.77;100575.75;4876028;29;1026;-58
2022/09/02 06:06:48;;;;;;;;;;;;;;;16.92;51.92;100575.50;4875181;29;1131;-58
2022/09/02 06:09:16;;;;;;;;;;;;;;;16.89;52.28;100569.75;4876055;29;1157;-57
2022/09/02 06:11:45;;;;;;;;;;;;;;;16.86;52.57;100581.28;4883498;29;993;-56
2022/09/02 06:14:17;;;;;;;;;;;;;;;16.83;52.59;100584.56;4877431;29;1213;-55
2022/09/02 06:16:43;;;;;;;;;;;;;;;16.83;52.80;100581.81;4876774;29;2299;-55
2022/09/02 06:19:17;;;;;;;;;;;;;;;16.82;53.18;100591.16;4883287;29;1259;-58
2022/09/02 06:21:43;;;;;;;;;;;;;;;16.74;53.47;100596.13;4874838;29;1008;-58
2022/09/02 06:24:09;;;;;;;;;;;;;;;16.70;53.76;100589.53;4868702;29;1318;-58
2022/09/02 06:26:35;;;;;;;;;;;;;;;16.72;54.16;100592.03;4871132;29;1293;-58
2022/09/02 06:29:01;;;;;;;;;;;;;;;16.73;54.07;100594.50;4872762;29;2244;-57
2022/09/02 06:31:27;;;;;;;;;;;;;;;16.70;54.26;100588.72;4876189;29;1350;-57
2022/09/02 06:33:53;;;;;;;;;;;;;;;16.71;54.52;100591.19;4881832;29;1249;-56
2022/09/02 06:36:20;;;;;;;;;;;;;;;16.67;54.78;100589.28;4876603;29;1915;-57
2022/09/02 06:38:47;;;;;;;;;;;;;;;16.67;54.54;100587.34;4881715;29;1191;-59
2022/09/02 06:41:14;;;;;;;;;;;;;;;16.65;55.11;100583.22;4875712;29;1185;-58
2022/09/02 06:43:42;;;;;;;;;;;;;;;16.65;54.88;100597.81;4876367;29;1200;-57
2022/09/02 06:46:21;;;;;;;;;;;;;;;16.65;55.33;100600.53;4878355;29;1022;-56
2022/09/02 06:48:49;;;;;;;;;;;;;;;16.64;55.40;100600.81;4875627;29;1390;-56
2022/09/02 06:51:17;;;;;;;;;;;;;;;16.56;55.74;100596.72;4879208;29;1342;-57
2022/09/02 06:53:44;;;;;;;;;;;;;;;16.57;55.90;100598.38;4881255;29;1620;-57
2022/09/02 06:56:11;;;;;;;;;;;;;;;16.57;55.76;100601.09;4881062;29;1911;-57
2022/09/02 06:58:36;;;;;;;;;;;;;;;16.57;55.99;100598.38;4871341;29;2198;-59
2022/09/02 07:01:02;;;;;;;;;;;;;;;16.52;56.10;100609.34;4887402;29;1325;-56
2022/09/02 07:06:13;;;;;;;;;;;;;;;16.55;56.19;100600.56;4866522;29;1184;-58
2022/09/02 07:08:43;;;;;;;;;;;;;;;16.55;56.06;100597.81;4879814;29;1324;-56
2022/09/02 07:11:17;;;;;;;;;;;;;;;16.52;56.48;100592.88;4875878;29;1235;-57
2022/09/02 07:13:43;;;;;;;;;;;;;;;16.51;56.39;100596.72;4880277;29;1200;-56
2022/09/02 07:16:08;;;;;;;;;;;;;;;16.50;56.61;100603.31;4876270;29;1968;-57
2022/09/02 07:18:34;;;;;;;;;;;;;;;16.49;56.58;100605.22;4875846;29;1199;-56
2022/09/02 07:21:00;;;;;;;;;;;;;;;16.54;56.65;100604.41;4876484;29;1354;-55
2022/09/02 07:23:25;;;;;;;;;;;;;;;16.54;56.51;100597.00;4881392;29;1278;-57
2022/09/02 07:25:51;;;;;;;;;;;;;;;16.48;56.77;100602.75;4878069;29;1392;-57
2022/09/02 07:28:17;;;;;;;;;;;;;;;16.47;56.91;100598.41;4878973;29;1314;-57
2022/09/02 07:30:43;;;;;;;;;;;;;;;16.46;56.96;100591.25;4877511;29;2334;-57
2022/09/02 07:33:13;;;;;;;;;;;;;;;16.45;56.66;100586.84;4880955;29;1257;-56
2022/09/02 07:35:43;;;;;;;;;;;;;;;16.47;56.59;100596.47;4879551;29;1910;-57
2022/09/02 07:38:09;;;;;;;;;;;;;;;16.46;56.75;100588.50;4878715;29;1385;-57
2022/09/02 07:40:35;;;;;;;;;;;;;;;16.42;57.20;100593.72;4877725;29;1309;-57
2022/09/02 07:43:02;;;;;;;;;;;;;;;16.43;56.80;100590.69;4876484;29;1274;-56
2022/09/02 07:45:28;;;;;;;;;;;;;;;16.46;56.86;100596.75;4879854;29;1334;-57
2022/09/02 07:47:55;;;;;;;;;;;;;;;16.51;56.99;100591.22;4867474;29;1170;-59
2022/09/02 07:50:23;;;;;;;;;;;;;;;16.42;57.29;100605.53;4865551;29;1247;-57
2022/09/02 07:52:56;;;;;;;;;;;;;;;16.40;57.43;100615.94;4876074;29;1183;-59
2022/09/02 07:55:21;;;;;;;;;;;;;;;16.42;57.37;100611.03;4875856;29;1906;-57
2022/09/02 07:57:48;;;;;;;;;;;;;;;16.38;57.40;100609.09;4875496;29;1290;-58
2022/09/02 08:00:15;;;;;;;;;;;;;;;16.39;57.40;100606.06;4878330;29;2235;-57
2022/09/02 08:02:40;;;;;;;;;;;;;;;16.37;57.32;100601.97;4869425;29;1097;-57
2022/09/02 08:05:06;;;;;;;;;;;;;;;16.36;57.19;100590.16;4877145;29;1159;-57
2022/09/02 08:07:32;;;;;;;;;;;;;;;16.35;57.24;100594.00;4875523;29;1219;-56
2022/09/02 08:09:59;;;;;;;;;;;;;;;16.35;57.24;100588.50;4873044;29;1029;-55
2022/09/02 08:12:25;;;;;;;;;;;;;;;16.36;57.22;100592.91;4873190;29;1171;-55
2022/09/02 08:14:51;;;;;;;;;;;;;;;16.36;57.47;100584.66;4877538;29;1143;-55
2022/09/02 08:17:16;;;;;;;;;;;;;;;16.48;57.09;100594.53;4875428;29;1966;-55
2022/09/02 08:19:43;;;;;;;;;;;;;;;16.39;57.40;100595.09;4874548;29;1148;-55
2022/09/02 08:22:09;;;;;;;;;;;;;;;16.36;57.72;100612.13;4874340;29;1127;-58
2022/09/02 08:24:34;;;;;;;;;;;;;;;16.38;57.61;100598.94;4876508;29;1251;-58
2022/09/02 08:27:00;;;;;;;;;;;;;;;16.38;57.68;100596.22;4878741;29;1033;-57
2022/09/02 08:29:25;;;;;;;;;;;;;;;16.42;57.49;100588.22;4874194;29;2226;-57
2022/09/02 08:31:51;;;;;;;;;;;;;;;16.39;57.92;100583.31;4876286;29;1265;-56
2022/09/02 08:34:16;;;;;;;;;;;;;;;16.40;57.82;100587.69;4875163;29;1144;-57
2022/09/02 08:36:42;;;;;;;;;;;;;;;16.38;57.81;100596.22;4875627;29;1915;-56
2022/09/02 08:39:08;;;;;;;;;;;;;;;16.39;57.81;100600.56;4874101;29;1183;-56
2022/09/02 08:41:42;;;;;;;;;;;;;;;16.40;57.50;100607.72;4874227;29;1325;-55
2022/09/02 08:44:08;;;;;;;;;;;;;;;16.38;57.89;100596.22;4876509;29;1195;-54
2022/09/02 08:46:34;;;;;;;;;;;;;;;16.35;57.54;100602.22;4877522;29;1354;-56
2022/09/02 08:49:02;;;;;;;;;;;;;;;16.35;57.81;100594.00;4875014;29;1141;-56
2022/09/02 08:51:44;;;;;;;;;;;;;;;16.34;57.74;100597.03;4878757;29;1341;-54
2022/09/02 08:54:16;;;;;;;;;;;;;;;16.32;57.88;100589.06;4877327;29;1044;-55
2022/09/02 08:56:41;;;;;;;;;;;;;;;16.36;57.73;100587.41;4879644;29;1989;-56
2022/09/02 08:59:08;;;;;;;;;;;;;;;16.32;57.98;100597.28;4876462;29;2442;-57
2022/09/02 09:01:43;;;;;;;;;;;;;;;16.35;57.64;100599.47;4871686;29;1124;-56
2022/09/02 09:04:16;;;;;;;;;;;;;;;16.34;57.64;100588.78;4877931;29;1174;-60
2022/09/02 09:07:00;;;;;;;;;;;;;;;16.36;57.77;100600.31;4877242;29;1182;-60
2022/09/02 09:09:44;;;;;;;;;;;;;;;16.32;57.96;100596.50;4871939;29;1199;-56
2022/09/02 09:12:28;;;;;;;;;;;;;;;16.32;57.69;100597.28;4877469;29;1153;-56
2022/09/02 09:15:02;;;;;;;;;;;;;;;16.35;57.66;100591.25;4873369;29;1254;-56
2022/09/02 09:17:27;;;;;;;;;;;;;;;16.31;57.75;100592.09;4879040;29;1915;-57
2022/09/02 09:19:53;;;;;;;;;;;;;;;16.34;58.01;100591.53;4873300;29;1695;-59
2022/09/02 09:22:20;;;;;;;;;;;;;;;16.31;57.85;100589.34;4872906;29;1226;-55
2022/09/02 09:24:46;;;;;;;;;;;;;;;16.27;57.91;100586.34;4879540;29;1302;-56
2022/09/02 09:27:12;;;;;;;;;;;;;;;16.35;57.99;100595.94;4872790;29;1386;-55
2022/09/02 09:29:37;;;;;;;;;;;;;;;16.36;57.71;100584.66;4876329;29;2405;-57
2022/09/02 09:32:03;;;;;;;;;;;;;;;16.32;57.83;100580.84;4871814;29;1155;-56
2022/09/02 09:34:47;;;;;;;;;;;;;;;16.32;57.97;100575.34;4870321;29;1211;-56
2022/09/02 09:37:20;;;;;;;;;;;;;;;16.32;57.92;100582.75;4875939;29;1993;-58
2022/09/02 09:39:45;;;;;;;;;;;;;;;16.32;57.74;100589.06;4876717;29;1169;-56
2022/09/02 09:42:12;;;;;;;;;;;;;;;16.32;57.98;100580.84;4876694;29;1380;-56
2022/09/02 09:44:37;;;;;;;;;;;;;;;16.35;57.87;100580.28;4881519;29;996;-57
2022/09/02 09:47:07;;;;;;;;;;;;;;;16.30;58.02;100580.31;4874403;29;1139;-57
2022/09/02 09:49:33;;;;;;;;;;;;;;;16.29;58.02;100578.66;4878575;29;1048;-56
2022/09/02 09:51:59;;;;;;;;;;;;;;;16.35;58.13;100571.22;4872263;29;1203;-57
2022/09/02 09:54:25;;;;;;;;;;;;;;;16.38;58.02;100577.00;4870709;29;1033;-59
2022/09/02 09:56:50;;;;;;;;;;;;;;;16.32;57.96;100569.84;4879845;29;1986;-56
2022/09/02 09:59:34;;;;;;;;;;;;;;;16.38;58.10;100565.19;4869865;29;2206;-57
2022/09/02 10:02:00;;;;;;;;;;;;;;;16.36;57.80;100553.69;4867703;29;1220;-58
2022/09/02 10:04:28;;;;;;;;;;;;;;;16.35;57.91;100550.09;4874028;29;939;-57
2022/09/02 10:06:53;;;;;;;;;;;;;;;16.35;58.02;100549.28;4880593;29;989;-56
2022/09/02 10:09:19;;;;;;;;;;;;;;;16.31;58.27;100539.97;4875001;29;1124;-57
2022/09/02 10:11:57;;;;;;;;;;;;;;;16.33;58.13;100519.38;4877222;29;1195;-58
2022/09/02 10:14:22;;;;;;;;;;;;;;;16.38;58.10;100526.75;4875204;29;1004;-56
2022/09/02 10:16:51;;;;;;;;;;;;;;;16.34;58.27;100521.03;4878043;29;1910;-57
2022/09/02 10:19:33;;;;;;;;;;;;;;;16.35;58.24;100519.91;4881255;29;1085;-56
2022/09/02 10:22:13;;;;;;;;;;;;;;;16.35;58.05;100506.19;4865936;29;1124;-57
2022/09/02 10:24:42;;;;;;;;;;;;;;;16.34;58.13;100504.56;4878058;29;996;-58
2022/09/02 10:27:08;;;;;;;;;;;;;;;16.33;57.95;100494.69;4880034;29;1052;-59
2022/09/02 10:29:33;;;;;;;;;;;;;;;16.34;58.20;100498.22;4880898;29;2240;-59
2022/09/02 10:32:10;;;;;;;;;;;;;;;16.32;57.81;100495.78;4875364;29;1246;-57
2022/09/02 10:34:39;;;;;;;;;;;;;;;16.30;57.91;100503.47;4876105;29;1226;-58
2022/09/02 10:37:14;;;;;;;;;;;;;;;16.33;58.17;100502.91;4878764;29;1915;-60
2022/09/02 10:39:58;;;;;;;;;;;;;;;16.34;58.00;100498.22;4872056;29;1060;-58
2022/09/02 10:42:33;;;;;;;;;;;;;;;16.30;58.12;100508.97;4868291;29;1064;-58
2022/09/02 10:44:58;;;;;;;;;;;;;;;16.33;57.96;100497.44;4879525;29;1170;-57
2022/09/02 10:47:37;;;;;;;;;;;;;;;16.32;58.14;100498.50;4882555;29;1197;-56
2022/09/02 10:50:11;;;;;;;;;;;;;;;16.37;57.97;100500.44;4869476;29;1041;-60
2022/09/02 10:52:37;;;;;;;;;;;;;;;16.36;58.19;100496.06;4876999;29;1151;-59
2022/09/02 10:55:05;;;;;;;;;;;;;;;16.34;57.99;100499.06;4872042;29;1001;-59
2022/09/02 10:57:44;;;;;;;;;;;;;;;16.38;57.92;100500.16;4879794;29;1907;-59
2022/09/02 11:00:17;;;;;;;;;;;;;;;16.41;57.89;100505.09;4863938;29;2256;-59
2022/09/02 11:02:55;;;;;;;;;;;;;;;16.37;58.12;100506.75;4867260;29;1046;-59
2022/09/02 11:05:23;;;;;;;;;;;;;;;16.39;58.20;100518.25;4877939;29;886;-59
2022/09/02 11:07:54;;;;;;;;;;;;;;;16.33;58.33;100508.41;4877086;29;914;-59
2022/09/02 11:10:22;;;;;;;;;;;;;;;16.40;58.33;100506.19;4879631;29;1013;-60
2022/09/02 11:12:50;;;;;;;;;;;;;;;16.41;58.37;100494.13;4879881;29;1373;-59
2022/09/02 11:15:19;;;;;;;;;;;;;;;16.37;58.49;100498.50;4868889;29;1236;-58
2022/09/02 11:18:04;;;;;;;;;;;;;;;16.48;58.14;100509.44;4873838;29;1063;-60
2022/09/02 11:20:33;;;;;;;;;;;;;;;16.43;58.42;100522.09;4830645;29;1251;-59
2022/09/02 11:23:17;;;;;;;;;;;;;;;16.42;58.42;100517.72;4833135;29;986;-60
2022/09/02 11:26:03;;;;;;;;;;;;;;;16.41;58.39;100516.06;4835964;29;1109;-60
2022/09/02 11:28:35;;;;;;;;;;;;;;;16.43;58.39;100508.34;4835008;29;1782;-60
2022/09/02 11:31:05;;;;;;;;;;;;;;;16.41;58.14;100498.75;4833526;29;878;-60
2022/09/02 11:33:34;;;;;;;;;;;;;;;16.40;58.16;100497.94;4838020;29;851;-60
2022/09/02 11:36:00;;;;;;;;;;;;;;;16.40;58.32;100492.47;4835768;29;1997;-61
2022/09/02 11:38:30;;;;;;;;;;;;;;;16.42;58.49;100484.78;4839538;29;1219;-60
2022/09/02 11:40:56;;;;;;;;;;;;;;;16.46;58.26;100484.22;4832873;29;840;-59
2022/09/02 11:43:25;;;;;;;;;;;;;;;16.47;58.60;100483.13;4832691;29;1350;-60
2022/09/02 11:45:55;;;;;;;;;;;;;;;16.45;58.56;100488.88;4836456;29;857;-61
2022/09/02 11:48:39;;;;;;;;;;;;;;;16.48;58.58;100484.75;4835157;29;945;-59
2022/09/02 11:51:05;;;;;;;;;;;;;;;16.44;58.57;100487.25;4833092;29;832;-60
2022/09/02 11:53:37;;;;;;;;;;;;;;;16.45;58.36;100485.31;4832654;29;1136;-60
2022/09/02 11:56:13;;;;;;;;;;;;;;;16.42;58.65;100473.81;4832467;29;1910;-60
2022/09/02 11:58:39;;;;;;;;;;;;;;;16.36;58.45;100457.63;4831425;29;2377;-60
2022/09/02 12:01:14;;;;;;;;;;;;;;;16.45;58.47;100471.59;4835257;29;939;-58
2022/09/02 12:03:43;;;;;;;;;;;;;;;16.49;58.38;100475.41;4834267;29;1046;-59
2022/09/02 12:06:15;;;;;;;;;;;;;;;16.50;58.33;100474.31;4833136;29;982;-58
2022/09/02 12:08:41;;;;;;;;;;;;;;;16.46;58.59;100484.22;4832753;29;951;-58
2022/09/02 12:11:07;;;;;;;;;;;;;;;16.47;58.41;100478.44;4832937;29;995;-59
2022/09/02 12:13:36;;;;;;;;;;;;;;;16.47;58.57;100491.34;4829965;29;992;-59
2022/09/02 12:16:28;;;;;;;;;;;;;;;16.47;58.33;100474.91;4832976;29;1907;-59
2022/09/02 12:18:54;;;;;;;;;;;;;;;16.46;58.43;100462.25;4842229;29;1695;-59
2022/09/02 12:21:30;;;;;;;;;;;;;;;16.44;58.66;100440.59;4865792;29;1195;-60
2022/09/02 12:23:55;;;;;;;;;;;;;;;16.43;58.64;100453.47;4869576;29;1179;-60
2022/09/02 12:26:39;;;;;;;;;;;;;;;16.41;58.50;100455.69;4869236;29;1021;-60
2022/09/02 12:29:17;;;;;;;;;;;;;;;16.43;58.32;100463.66;4867091;29;2233;-59
2022/09/02 12:31:46;;;;;;;;;;;;;;;16.39;58.66;100457.88;4868046;29;1037;-59
2022/09/02 12:34:23;;;;;;;;;;;;;;;16.42;58.41;100462.84;4871124;29;1137;-59
2022/09/02 12:36:52;;;;;;;;;;;;;;;16.42;58.24;100470.22;4867988;29;1919;-59
2022/09/02 12:39:23;;;;;;;;;;;;;;;16.42;58.36;100484.78;4869013;29;1234;-58
2022/09/02 12:41:51;;;;;;;;;;;;;;;16.39;58.34;100474.34;4873903;29;1258;-60
2022/09/02 12:44:17;;;;;;;;;;;;;;;16.39;58.58;100477.09;4872060;29;1356;-60
2022/09/02 12:46:42;;;;;;;;;;;;;;;16.41;58.25;100465.81;4867208;29;1183;-60
2022/09/02 12:49:14;;;;;;;;;;;;;;;16.40;58.48;100470.50;4880500;29;1000;-60
2022/09/02 12:52:03;;;;;;;;;;;;;;;16.39;58.60;100471.59;4878869;29;1221;-60
2022/09/02 12:54:38;;;;;;;;;;;;;;;16.43;58.25;100469.94;4867529;29;1173;-59
2022/09/02 12:57:04;;;;;;;;;;;;;;;16.41;58.39;100461.19;4864673;29;1911;-59